Time;durP1;ratioP1;P1;durP2;ratioP2;P2;SDS_P1;SDS_P2;PMS_P1;PMS_P2;Temp;Humidity;BMP_temperature;BMP_pressure;BME280_temperature;BME280_humidity;BME280_pressure;Samples;Min_cycle;Max_cycle;Signal;HPM_P1;HPM_P2
2022/04/27 00:00:22;;;;;;;13.82;7.90;;;;;;;7.25;72.26;102565.00;5030536;28;20037;-59
2022/04/27 00:02:48;;;;;;;13.55;7.90;;;;;;;7.23;72.08;102566.59;5051029;28;20434;-59
2022/04/27 00:05:13;;;;;;;12.75;7.30;;;;;;;7.22;72.04;102570.00;5033813;28;20665;-58
2022/04/27 00:07:39;;;;;;;13.48;7.38;;;;;;;7.19;71.96;102564.66;5053957;28;20541;-60
2022/04/27 00:10:06;;;;;;;12.18;7.97;;;;;;;7.19;72.60;102569.84;5039697;27;20043;-61
2022/04/27 00:12:34;;;;;;;12.70;7.53;;;;;;;7.21;72.75;102572.50;5051766;28;20044;-60
2022/04/27 00:14:59;;;;;;;12.80;7.55;;;;;;;7.19;72.51;102564.66;5053467;27;20047;-60
2022/04/27 00:17:25;;;;;;;14.82;7.75;;;;;;;7.17;72.53;102562.78;5046163;28;20035;-59
2022/04/27 00:19:50;;;;;;;12.98;7.85;;;;;;;7.14;72.23;102562.59;5047572;27;20089;-59
2022/04/27 00:22:16;;;;;;;15.50;8.35;;;;;;;7.10;72.34;102561.56;5042862;28;20067;-60
2022/04/27 00:24:41;;;;;;;13.65;7.28;;;;;;;7.10;72.41;102553.78;5047866;28;20044;-60
2022/04/27 00:27:06;;;;;;;14.20;7.60;;;;;;;7.10;72.81;102555.47;5057459;28;20055;-59
2022/04/27 00:29:32;;;;;;;14.30;8.07;;;;;;;7.08;72.83;102554.50;5052034;28;20051;-58
2022/04/27 00:31:58;;;;;;;14.10;8.20;;;;;;;7.09;72.63;102557.19;5052646;28;20623;-59
2022/04/27 00:34:23;;;;;;;14.43;7.78;;;;;;;7.10;72.55;102553.78;5036540;28;21846;-59
2022/04/27 00:36:48;;;;;;;13.23;8.15;;;;;;;7.11;72.68;102565.06;5058457;28;20044;-60
2022/04/27 00:39:14;;;;;;;13.27;8.38;;;;;;;7.12;72.61;102564.25;5059024;27;20047;-59
2022/04/27 00:41:58;;;;;;;17.38;8.73;;;;;;;7.13;73.38;102563.44;5053767;28;20046;-59
2022/04/27 00:44:27;;;;;;;14.27;8.10;;;;;;;7.19;73.05;102568.97;5049945;27;20044;-61
2022/04/27 00:46:53;;;;;;;12.50;7.55;;;;;;;7.20;72.76;102570.72;5050648;28;20102;-58
2022/04/27 00:49:18;;;;;;;12.65;8.15;;;;;;;7.24;73.03;102562.31;5037148;28;20506;-59
2022/04/27 00:51:45;;;;;;;14.77;7.82;;;;;;;7.32;73.04;102571.38;5050545;27;20044;-58
2022/04/27 00:54:10;;;;;;;16.00;8.68;;;;;;;7.37;73.17;102571.66;5044555;28;20055;-60
2022/04/27 00:56:38;;;;;;;15.30;8.68;;;;;;;7.42;73.48;102568.47;5052955;28;20067;-60
2022/04/27 00:59:03;;;;;;;14.93;7.80;;;;;;;7.49;73.17;102561.91;5049477;28;20036;-59
2022/04/27 01:01:29;;;;;;;17.15;8.55;;;;;;;7.53;73.42;102561.25;5054721;28;20040;-58
2022/04/27 01:03:57;;;;;;;19.88;8.40;;;;;;;7.58;73.44;102563.28;5018596;28;20529;-58
2022/04/27 01:06:23;;;;;;;14.98;8.40;;;;;;;7.63;73.27;102554.00;5048985;28;20109;-60
2022/04/27 01:08:48;;;;;;;14.20;8.10;;;;;;;7.68;72.92;102565.53;5051831;28;20048;-57
2022/04/27 01:11:15;;;;;;;14.40;8.02;;;;;;;7.71;72.58;102557.91;5039694;28;20307;-57
2022/04/27 01:13:40;;;;;;;12.40;7.60;;;;;;;7.76;72.85;102563.34;5049150;28;20048;-60
2022/04/27 01:16:06;;;;;;;13.38;8.20;;;;;;;7.82;73.28;102563.66;5046469;27;20666;-59
2022/04/27 01:18:32;;;;;;;15.07;8.77;;;;;;;7.87;73.52;102559.56;5053345;28;20040;-60
2022/04/27 01:20:58;;;;;;;18.85;8.70;;;;;;;7.95;73.34;102565.16;5048870;27;20070;-60
2022/04/27 01:23:23;;;;;;;14.45;8.48;;;;;;;8.01;73.44;102562.88;5047381;28;20502;-59
2022/04/27 01:25:50;;;;;;;14.35;8.30;;;;;;;8.07;73.29;102565.78;5046254;28;20035;-59
2022/04/27 01:28:18;;;;;;;18.33;9.27;;;;;;;8.13;73.04;102564.38;5049953;27;20111;-59
2022/04/27 01:30:44;;;;;;;16.42;8.32;;;;;;;8.22;72.92;102563.06;5051069;27;20135;-59
2022/04/27 01:33:10;;;;;;;13.15;8.35;;;;;;;8.25;73.11;102565.81;5055576;27;20048;-59
2022/04/27 01:35:36;;;;;;;15.02;8.35;;;;;;;8.31;73.23;102563.56;5058568;27;20036;-61
2022/04/27 01:38:02;;;;;;;15.65;9.05;;;;;;;8.36;73.46;102568.16;5045909;28;20079;-60
2022/04/27 01:40:28;;;;;;;15.68;8.38;;;;;;;8.40;73.18;102572.72;5049660;28;20309;-59
2022/04/27 01:42:54;;;;;;;14.90;7.97;;;;;;;8.43;73.37;102567.66;5050857;27;20055;-59
2022/04/27 01:45:19;;;;;;;14.13;8.30;;;;;;;8.45;73.02;102568.63;5052200;28;21271;-60
2022/04/27 01:47:44;;;;;;;15.13;8.32;;;;;;;8.49;73.02;102575.75;5046436;28;20032;-59
2022/04/27 01:50:10;;;;;;;15.73;8.32;;;;;;;8.48;72.91;102570.47;5030327;28;20917;-59
2022/04/27 01:55:19;;;;;;;14.27;8.20;;;;;;;8.54;72.68;102573.34;5048513;27;20096;-59
2022/04/27 01:57:45;;;;;;;14.43;8.25;;;;;;;8.51;72.88;102571.53;5045816;27;20163;-57
2022/04/27 02:00:11;;;;;;;13.30;8.02;;;;;;;8.55;72.75;102576.03;5033979;27;20051;-60
2022/04/27 02:02:36;;;;;;;14.85;8.30;;;;;;;8.54;73.15;102576.84;5050255;28;20101;-59
2022/04/27 02:05:04;;;;;;;13.20;8.40;;;;;;;8.62;72.87;102587.63;5047395;28;20036;-59
2022/04/27 02:07:30;;;;;;;15.98;8.45;;;;;;;8.65;72.80;102589.50;5050802;28;20321;-57
2022/04/27 02:09:55;;;;;;;17.00;7.93;;;;;;;8.68;72.26;102585.31;5051807;28;20147;-60
2022/04/27 02:12:21;;;;;;;13.77;8.07;;;;;;;8.73;72.10;102588.13;5027492;27;20568;-59
2022/04/27 02:14:46;;;;;;;14.43;7.53;;;;;;;8.77;72.03;102590.09;5046688;28;20056;-60
2022/04/27 02:17:12;;;;;;;14.57;8.50;;;;;;;8.78;72.11;102584.06;5040748;28;20097;-58
2022/04/27 02:19:37;;;;;;;15.27;8.13;;;;;;;8.77;72.24;102592.69;5051529;27;20044;-59
2022/04/27 02:22:03;;;;;;;14.52;8.27;;;;;;;8.81;71.88;102590.28;5046407;28;20130;-60
2022/04/27 02:24:29;;;;;;;15.13;7.53;;;;;;;8.81;71.79;102592.00;5054083;27;20052;-59
2022/04/27 02:26:55;;;;;;;14.07;7.57;;;;;;;8.85;71.80;102601.72;5045785;28;20058;-59
2022/04/27 02:29:22;;;;;;;15.50;7.78;;;;;;;8.88;71.68;102599.28;5051933;28;20094;-61
2022/04/27 02:31:47;;;;;;;15.02;7.70;;;;;;;8.90;71.45;102605.47;5047562;27;20071;-60
2022/04/27 02:34:13;;;;;;;17.30;8.00;;;;;;;8.93;71.76;102603.88;5049961;28;20048;-59
2022/04/27 02:36:38;;;;;;;15.57;7.75;;;;;;;8.94;71.56;102603.06;5050890;27;20040;-59
2022/04/27 02:39:03;;;;;;;11.98;7.43;;;;;;;8.97;71.82;102607.50;5047544;28;20048;-58
2022/04/27 02:41:29;;;;;;;11.80;7.78;;;;;;;9.00;71.30;102606.78;5047803;28;20764;-59
2022/04/27 02:43:55;;;;;;;11.25;7.22;;;;;;;9.02;71.79;102606.03;5058632;27;20075;-61
2022/04/27 02:46:20;;;;;;;11.82;7.10;;;;;;;9.02;71.90;102602.56;5047055;28;20135;-59
2022/04/27 02:54:14;;;;;;;14.93;8.23;;;;;;;9.02;71.91;102602.56;5040271;27;20100;-59
2022/04/27 02:56:39;;;;;;;15.55;8.38;;;;;;;9.02;71.66;102608.66;5039355;28;20059;-59
2022/04/27 02:59:05;;;;;;;16.65;7.75;;;;;;;8.99;71.82;102600.69;5048938;27;20044;-59
2022/04/27 03:01:30;;;;;;;13.77;7.60;;;;;;;9.04;71.68;102603.50;5037308;27;20407;-59
2022/04/27 03:03:55;;;;;;;13.57;7.70;;;;;;;9.02;71.39;102613.84;5047287;28;20052;-60
2022/04/27 03:06:22;;;;;;;14.45;7.70;;;;;;;9.09;71.13;102607.22;5043670;28;20057;-59
2022/04/27 03:08:47;;;;;;;15.30;7.50;;;;;;;9.13;70.82;102610.03;5049368;28;20609;-59
2022/04/27 03:11:12;;;;;;;12.57;7.32;;;;;;;9.12;70.65;102616.06;5048765;28;20287;-60
2022/04/27 03:13:42;;;;;;;15.10;7.75;;;;;;;9.12;70.49;102607.34;5052703;28;20427;-58
2022/04/27 03:16:07;;;;;;;12.77;7.38;;;;;;;9.11;70.77;102610.78;5045925;28;20055;-59
2022/04/27 03:18:32;;;;;;;14.05;7.25;;;;;;;9.10;70.75;102616.78;5056683;28;20040;-59
2022/04/27 03:20:58;;;;;;;11.23;6.90;;;;;;;9.02;70.49;102610.34;5049299;28;20036;-58
2022/04/27 03:23:24;;;;;;;13.40;7.25;;;;;;;8.99;70.50;102600.69;5044143;27;20048;-59
2022/04/27 03:25:49;;;;;;;12.20;7.32;;;;;;;8.91;70.72;102602.91;5048577;28;20281;-58
2022/04/27 03:28:15;;;;;;;11.52;7.10;;;;;;;8.88;70.79;102601.88;5042618;27;20040;-60
2022/04/27 03:30:41;;;;;;;13.00;6.97;;;;;;;8.87;71.29;102603.59;5054356;27;20763;-60
2022/04/27 03:33:06;;;;;;;15.38;7.65;;;;;;;8.87;71.12;102605.31;5034645;28;20047;-58
2022/04/27 03:35:32;;;;;;;15.88;7.75;;;;;;;8.87;71.35;102605.31;5051742;28;20589;-60
2022/04/27 03:37:58;;;;;;;14.70;7.70;;;;;;;8.86;71.43;102604.41;5041055;28;20086;-58
2022/04/27 03:40:27;;;;;;;11.95;7.00;;;;;;;8.88;71.36;102600.19;5049488;27;20399;-59
2022/04/27 03:42:53;;;;;;;14.27;7.05;;;;;;;8.92;71.34;102603.81;5057264;27;20044;-59
2022/04/27 03:45:19;;;;;;;14.63;7.50;;;;;;;8.94;71.77;102599.56;5048214;27;20072;-58
2022/04/27 03:47:49;;;;;;;14.02;7.05;;;;;;;8.95;71.19;102602.25;5055506;28;20046;-59
2022/04/27 03:50:15;;;;;;;15.50;7.10;;;;;;;9.00;71.42;102604.19;5050554;27;20040;-59
2022/04/27 03:52:42;;;;;;;14.43;7.85;;;;;;;9.00;71.18;102614.56;5053085;27;20040;-60
2022/04/27 03:55:07;;;;;;;11.70;7.00;;;;;;;9.00;71.66;102607.66;5052555;28;20518;-59
2022/04/27 03:57:33;;;;;;;15.02;7.38;;;;;;;9.03;71.64;102606.91;5050696;28;20083;-60
2022/04/27 03:59:58;;;;;;;14.40;7.30;;;;;;;9.09;71.64;102613.28;5052672;28;20131;-59
2022/04/27 04:02:24;;;;;;;11.43;6.97;;;;;;;9.11;71.20;102605.56;5042900;28;20071;-59
2022/04/27 04:04:49;;;;;;;16.63;7.97;;;;;;;9.07;71.95;102609.75;5054708;27;20036;-60
2022/04/27 04:07:15;;;;;;;18.15;7.93;;;;;;;9.16;71.90;102611.88;5057555;28;20047;-59
2022/04/27 04:09:40;;;;;;;14.00;7.68;;;;;;;9.23;71.46;102616.53;5058959;27;20106;-58
2022/04/27 04:12:06;;;;;;;16.25;7.95;;;;;;;9.25;71.49;102607.09;5046897;27;20041;-60
2022/04/27 04:14:32;;;;;;;13.98;7.40;;;;;;;9.28;71.21;102610.72;5043177;28;21150;-59
2022/04/27 04:16:58;;;;;;;12.73;7.53;;;;;;;9.29;71.23;102617.72;5055743;28;20059;-58
2022/04/27 04:19:25;;;;;;;12.88;7.35;;;;;;;9.30;71.10;102619.50;5054496;28;20032;-58
2022/04/27 04:21:50;;;;;;;13.30;7.63;;;;;;;9.35;70.80;102624.91;5052645;28;20180;-60
2022/04/27 04:24:16;;;;;;;12.40;7.05;;;;;;;9.39;70.95;102612.94;5055490;28;20156;-60
2022/04/27 04:29:26;;;;;;;13.50;7.85;;;;;;;9.41;71.03;102624.31;5053302;28;20797;-59
2022/04/27 04:31:51;;;;;;;11.48;7.47;;;;;;;9.44;70.63;102629.66;5061120;28;20123;-59
2022/04/27 04:34:17;;;;;;;11.52;7.03;;;;;;;9.50;70.64;102635.16;5045231;27;20755;-62
2022/04/27 04:36:43;;;;;;;13.30;7.00;;;;;;;9.53;70.43;102628.38;5044782;27;20518;-60
2022/04/27 04:39:08;;;;;;;13.85;7.47;;;;;;;9.59;70.28;102630.34;5057034;27;20044;-60
2022/04/27 04:41:33;;;;;;;12.88;7.55;;;;;;;9.61;70.05;102627.00;5049317;28;20036;-60
2022/04/27 04:43:59;;;;;;;11.30;7.32;;;;;;;9.67;69.67;102632.50;5042387;28;20044;-59
2022/04/27 04:46:27;;;;;;;13.45;7.07;;;;;;;9.71;69.68;102636.09;5045708;27;20051;-60
2022/04/27 04:48:52;;;;;;;13.73;7.05;;;;;;;9.81;69.39;102635.72;5057799;27;20395;-58
2022/04/27 04:51:18;;;;;;;14.07;7.40;;;;;;;9.86;69.46;102636.81;5052340;27;20134;-60
2022/04/27 04:53:43;;;;;;;13.32;7.40;;;;;;;9.94;69.23;102650.19;5054252;28;20043;-60
2022/04/27 04:56:08;;;;;;;14.30;7.38;;;;;;;9.97;68.64;102651.19;5048935;28;20040;-60
2022/04/27 04:58:34;;;;;;;11.82;7.55;;;;;;;10.01;69.11;102650.50;5048700;27;20048;-60
2022/04/27 05:01:01;;;;;;;15.15;7.03;;;;;;;10.05;69.22;102652.44;5051919;28;20478;-59
2022/04/27 05:03:26;;;;;;;15.02;7.50;;;;;;;10.08;68.87;102656.88;5049989;27;20124;-59
2022/04/27 05:05:52;;;;;;;11.65;6.80;;;;;;;10.14;68.15;102657.13;5051764;28;20451;-60
2022/04/27 05:08:17;;;;;;;12.40;7.35;;;;;;;10.21;68.00;102663.53;5042843;28;20116;-60
2022/04/27 05:10:43;;;;;;;12.90;7.00;;;;;;;10.28;67.62;102668.19;5036066;28;20032;-59
2022/04/27 05:13:09;;;;;;;12.82;7.28;;;;;;;10.30;67.64;102672.66;5055280;27;20075;-59
2022/04/27 05:15:34;;;;;;;10.80;7.20;;;;;;;10.37;67.60;102673.81;5039227;28;20108;-59
2022/04/27 05:18:00;;;;;;;10.75;6.82;;;;;;;10.37;67.16;102674.69;5052552;27;20646;-58
2022/04/27 05:20:25;;;;;;;13.00;6.57;;;;;;;10.42;66.46;102680.13;5048292;28;20044;-60
2022/04/27 05:22:56;;;;;;;11.20;6.68;;;;;;;10.49;66.43;102680.41;5049648;27;20231;-58
2022/04/27 05:25:21;;;;;;;9.70;6.28;;;;;;;10.55;66.38;102682.41;5052334;27;20554;-59
2022/04/27 05:27:46;;;;;;;9.27;6.20;;;;;;;10.55;65.26;102688.50;5052732;27;20072;-60
2022/04/27 05:32:56;;;;;;;13.57;6.47;;;;;;;10.72;65.08;102699.66;5051437;28;20589;-59
2022/04/27 05:35:21;;;;;;;10.98;6.15;;;;;;;10.82;65.36;102686.16;5049440;28;20063;-60
2022/04/27 05:37:47;;;;;;;10.38;6.50;;;;;;;10.81;64.83;102693.91;5048531;27;20048;-60
2022/04/27 05:40:13;;;;;;;10.23;6.07;;;;;;;10.81;65.06;102696.53;5052267;27;20115;-60
2022/04/27 05:42:39;;;;;;;14.95;6.40;;;;;;;10.88;65.03;102701.19;5033485;28;20852;-60
2022/04/27 05:45:06;;;;;;;10.35;6.15;;;;;;;10.94;64.64;102704.94;5048236;27;20055;-59
2022/04/27 05:47:31;;;;;;;9.95;6.53;;;;;;;10.99;64.16;102707.72;5053650;23;20041;-57
2022/04/27 05:49:57;;;;;;;13.75;6.38;;;;;;;11.08;64.55;102699.38;5030207;28;20656;-60
2022/04/27 05:52:23;;;;;;;9.38;6.00;;;;;;;11.10;64.34;102708.19;5024893;28;21713;-60
2022/04/27 05:54:49;;;;;;;8.90;6.13;;;;;;;11.07;63.47;102706.31;5039035;28;20385;-58
2022/04/27 05:57:15;;;;;;;13.02;6.53;;;;;;;11.06;62.87;102708.84;5040398;28;20479;-58
2022/04/27 05:59:42;;;;;;;12.02;6.47;;;;;;;11.13;63.23;102703.06;5034659;28;20062;-58
2022/04/27 06:02:07;;;;;;;11.68;6.25;;;;;;;11.26;63.16;102719.28;5034953;28;20044;-60
2022/04/27 06:04:33;;;;;;;10.25;5.32;;;;;;;11.27;62.11;102714.97;5033189;28;20113;-59
2022/04/27 06:06:58;;;;;;;11.52;5.85;;;;;;;11.31;61.90;102707.28;5036170;28;20110;-59
2022/04/27 06:09:23;;;;;;;11.63;5.97;;;;;;;11.42;61.86;102722.47;5039257;28;20578;-59
2022/04/27 06:11:49;;;;;;;8.82;5.22;;;;;;;11.58;61.89;102712.72;5023218;28;21451;-61
2022/04/27 06:14:14;;;;;;;11.00;5.45;;;;;;;11.66;61.35;102721.72;5034565;28;20522;-59
2022/04/27 06:16:39;;;;;;;10.38;5.45;;;;;;;11.68;61.50;102727.00;5024659;28;20040;-59
2022/04/27 06:19:05;;;;;;;9.90;5.03;;;;;;;11.75;60.10;102724.72;5020671;28;20068;-58
2022/04/27 06:21:31;;;;;;;9.23;5.45;;;;;;;11.87;60.30;102723.41;5035449;28;20072;-59
2022/04/27 06:24:00;;;;;;;9.13;5.30;;;;;;;11.89;59.90;102724.38;5030907;28;20851;-57
2022/04/27 06:26:26;;;;;;;9.63;5.07;;;;;;;11.78;58.95;102727.44;5035545;28;20584;-58
2022/04/27 06:28:52;;;;;;;8.55;5.38;;;;;;;11.91;59.15;102725.28;5037170;28;20143;-58
2022/04/27 06:31:18;;;;;;;8.98;5.22;;;;;;;12.06;59.34;102728.47;5039478;28;20041;-58
2022/04/27 06:33:44;;;;;;;14.30;5.68;;;;;;;12.01;58.66;102732.66;5035182;28;20044;-59
2022/04/27 06:36:10;;;;;;;11.68;5.35;;;;;;;12.09;59.00;102737.31;5019470;28;20132;-60
2022/04/27 06:38:36;;;;;;;9.20;5.03;;;;;;;12.05;58.66;102731.94;5036489;28;20044;-59
2022/04/27 06:41:02;;;;;;;8.98;4.75;;;;;;;11.99;58.60;102743.06;5038518;28;20052;-58
2022/04/27 06:43:28;;;;;;;8.90;5.07;;;;;;;12.04;58.20;102735.38;5035035;28;20581;-58
2022/04/27 06:45:54;;;;;;;8.05;4.95;;;;;;;12.03;59.18;102736.19;5035482;28;20080;-59
2022/04/27 06:48:19;;;;;;;10.73;5.50;;;;;;;12.10;59.56;102739.09;4994317;28;20041;-58
2022/04/27 06:50:45;;;;;;;13.30;4.97;;;;;;;12.10;57.78;102746.94;5013148;28;20065;-58
2022/04/27 06:53:10;;;;;;;10.82;5.40;;;;;;;12.07;56.88;102749.47;5015714;28;20297;-57
2022/04/27 06:55:37;;;;;;;9.88;4.55;;;;;;;12.29;57.63;102753.75;5025327;28;20044;-59
2022/04/27 06:58:03;;;;;;;9.48;4.72;;;;;;;12.43;57.53;102751.63;5007085;28;20050;-61
2022/04/27 07:00:29;;;;;;;9.50;5.57;;;;;;;12.41;57.92;102754.19;5006499;28;20078;-60
2022/04/27 07:02:54;;;;;;;10.10;5.25;;;;;;;12.44;59.06;102764.72;5019229;28;20044;-57
2022/04/27 07:05:21;;;;;;;10.35;5.43;;;;;;;12.56;58.97;102761.69;5023529;28;20067;-58
2022/04/27 07:07:47;;;;;;;8.10;5.35;;;;;;;12.52;58.30;102758.06;5020804;28;20593;-59
2022/04/27 07:10:15;;;;;;;10.43;5.13;;;;;;;12.50;58.10;102756.25;5013920;28;20041;-60
2022/04/27 07:12:42;;;;;;;9.98;5.20;;;;;;;12.60;58.03;102758.34;5019873;28;20049;-59
2022/04/27 07:15:08;;;;;;;10.13;5.00;;;;;;;12.59;57.58;102764.41;5014493;28;20052;-59
2022/04/27 07:17:34;;;;;;;9.68;4.80;;;;;;;12.58;56.81;102767.84;5013920;28;20067;-59
2022/04/27 07:19:59;;;;;;;9.02;4.85;;;;;;;12.51;56.46;102764.13;5012855;28;20564;-58
2022/04/27 07:22:24;;;;;;;9.77;4.65;;;;;;;12.62;56.05;102769.75;5013157;28;20305;-59
2022/04/27 07:24:50;;;;;;;9.00;4.65;;;;;;;12.55;55.28;102771.25;5013312;28;20188;-61
2022/04/27 07:27:16;;;;;;;7.65;4.60;;;;;;;12.79;54.71;102786.94;4998477;28;20033;-59
2022/04/27 07:29:42;;;;;;;7.65;4.30;;;;;;;12.85;54.82;102783.63;5019847;28;20037;-59
2022/04/27 07:32:07;;;;;;;7.63;4.15;;;;;;;12.89;54.38;102780.28;5009633;28;20404;-60
2022/04/27 07:34:32;;;;;;;6.32;4.30;;;;;;;13.05;53.80;102784.31;5010744;28;20057;-59
2022/04/27 07:36:58;;;;;;;9.20;4.50;;;;;;;13.01;53.80;102789.44;5019078;28;20106;-58
2022/04/27 07:39:26;;;;;;;9.38;4.88;;;;;;;12.99;53.17;102793.72;5017221;28;20426;-61
2022/04/27 07:41:52;;;;;;;7.78;4.25;;;;;;;12.93;52.92;102790.88;5016691;28;20053;-58
2022/04/27 07:44:17;;;;;;;7.63;4.53;;;;;;;12.94;54.71;102795.28;5013321;28;20506;-61
2022/04/27 07:46:47;;;;;;;8.70;4.93;;;;;;;12.93;52.62;102797.84;5022424;28;20037;-59
2022/04/27 07:49:16;;;;;;;10.40;4.90;;;;;;;12.96;52.16;102800.59;5002425;28;20040;-59
2022/04/27 07:51:41;;;;;;;7.15;4.50;;;;;;;13.16;52.14;102794.34;5018141;28;20482;-60
2022/04/27 07:54:06;;;;;;;8.07;4.70;;;;;;;13.26;52.68;102793.78;5010749;28;20271;-59
2022/04/27 07:56:32;;;;;;;11.88;4.50;;;;;;;13.48;51.96;102805.00;5016264;28;20052;-59
2022/04/27 07:58:58;;;;;;;7.65;4.03;;;;;;;13.39;50.02;102802.94;5018908;28;20056;-58
2022/04/27 08:01:25;;;;;;;8.02;4.25;;;;;;;13.37;50.00;102807.22;5013807;28;20490;-59
2022/04/27 08:03:51;;;;;;;7.97;4.30;;;;;;;13.32;50.73;102801.84;5011471;28;20128;-59
2022/04/27 08:06:16;;;;;;;11.05;4.50;;;;;;;13.40;49.95;102804.72;5008950;28;20439;-60
2022/04/27 08:08:41;;;;;;;7.45;4.30;;;;;;;13.52;50.16;102804.22;5012088;28;20102;-59
2022/04/27 08:11:09;;;;;;;8.25;4.47;;;;;;;13.77;51.06;102802.44;5008320;28;20076;-60
2022/04/27 08:13:34;;;;;;;8.15;4.20;;;;;;;13.87;50.53;102815.81;5015042;28;20036;-59
2022/04/27 08:16:00;;;;;;;9.88;4.40;;;;;;;13.91;49.59;102822.91;5014439;28;20152;-60
2022/04/27 08:18:25;;;;;;;8.43;4.35;;;;;;;14.12;49.66;102818.34;5008725;28;20049;-58
2022/04/27 08:23:36;;;;;;;8.23;4.47;;;;;;;14.29;49.23;102832.84;5021901;28;20521;-59
2022/04/27 08:26:04;;;;;;;7.38;4.18;;;;;;;14.33;49.70;102831.22;5012339;28;20156;-58
2022/04/27 08:28:30;;;;;;;8.70;4.07;;;;;;;14.42;50.19;102839.38;4998597;28;20566;-57
2022/04/27 08:30:56;;;;;;;6.65;3.92;;;;;;;14.45;50.16;102836.84;5024842;28;20036;-58
2022/04/27 08:33:22;;;;;;;8.57;4.40;;;;;;;14.41;50.43;102840.19;5021695;28;20389;-59
2022/04/27 08:35:48;;;;;;;8.20;4.22;;;;;;;14.29;49.88;102839.81;5028021;28;20451;-59
2022/04/27 08:38:15;;;;;;;7.10;4.50;;;;;;;14.21;50.14;102839.56;5011712;28;20037;-59
2022/04/27 08:40:42;;;;;;;8.43;4.15;;;;;;;13.99;49.65;102831.91;4998944;28;20073;-60
2022/04/27 08:43:12;;;;;;;9.10;4.45;;;;;;;14.06;49.56;102840.03;5021858;28;20045;-60
2022/04/27 08:45:40;;;;;;;10.90;4.53;;;;;;;14.15;49.87;102836.78;5025675;28;20064;-60
2022/04/27 08:48:06;;;;;;;8.52;4.70;;;;;;;14.22;49.58;102836.13;5014361;28;20048;-60
2022/04/27 08:50:32;;;;;;;10.98;4.78;;;;;;;14.28;49.25;102843.28;5021559;28;20041;-60
2022/04/27 08:52:57;;;;;;;10.32;4.50;;;;;;;14.31;49.24;102846.91;5022461;28;20068;-60
2022/04/27 08:55:23;;;;;;;10.35;4.18;;;;;;;14.33;49.62;102844.31;5021472;28;20048;-59
2022/04/27 08:57:49;;;;;;;7.65;4.47;;;;;;;14.23;50.22;102849.28;5025647;28;21235;-59
2022/04/27 09:00:16;;;;;;;7.82;4.07;;;;;;;14.51;49.52;102843.16;5018152;28;20364;-59
2022/04/27 09:02:43;;;;;;;7.07;4.20;;;;;;;14.49;48.49;102854.44;5020217;28;20048;-59
2022/04/27 09:05:16;;;;;;;8.35;4.00;;;;;;;14.45;47.91;102845.59;5010812;28;21176;-59
2022/04/27 09:07:50;;;;;;;8.57;4.10;;;;;;;14.46;47.61;102854.34;5022771;28;20033;-59
2022/04/27 09:10:17;;;;;;;9.25;4.20;;;;;;;14.61;47.06;102853.06;5007550;28;20830;-60
2022/04/27 09:12:48;;;;;;;6.30;3.90;;;;;;;14.66;46.49;102855.81;5018184;28;20151;-59
2022/04/27 09:15:16;;;;;;;8.07;3.40;;;;;;;14.59;45.19;102856.47;5023724;28;20048;-58
2022/04/27 09:23:21;;;;;;;7.35;3.17;;;;;;;14.49;42.89;102855.34;5017258;28;21806;-58
2022/04/27 09:25:47;;;;;;;5.30;2.65;;;;;;;14.49;40.95;102855.34;5022438;28;20029;-58
2022/04/27 09:28:12;;;;;;;4.43;2.58;;;;;;;14.59;39.98;102857.38;5009119;28;20466;-59
2022/04/27 09:30:38;;;;;;;4.75;2.50;;;;;;;14.85;40.82;102857.22;5001936;28;20037;-59
2022/04/27 09:33:03;;;;;;;3.95;2.55;;;;;;;14.98;40.66;102852.34;5012115;28;20037;-59
2022/04/27 09:35:36;;;;;;;4.40;2.42;;;;;;;15.22;39.35;102859.06;5019923;28;20072;-59
2022/04/27 09:38:19;;;;;;;4.88;2.50;;;;;;;15.22;38.51;102854.72;5006174;28;20543;-59
2022/04/27 09:40:50;;;;;;;5.43;2.65;;;;;;;15.32;39.27;102861.06;5024144;28;20037;-59
2022/04/27 09:43:16;;;;;;;9.25;3.05;;;;;;;14.87;39.40;102864.28;5014964;28;20431;-61
2022/04/27 09:45:43;;;;;;;6.97;3.08;;;;;;;14.93;40.04;102866.19;5017147;28;20343;-59
2022/04/27 09:48:15;;;;;;;7.18;3.40;;;;;;;14.79;40.26;102864.91;5008097;28;20075;-59
2022/04/27 09:50:59;;;;;;;7.07;3.20;;;;;;;15.01;41.45;102864.66;5016437;28;20150;-59
2022/04/27 09:53:24;;;;;;;5.47;3.20;;;;;;;15.09;40.76;102871.00;5020937;28;20408;-59
2022/04/27 09:55:52;;;;;;;7.38;3.65;;;;;;;15.24;40.36;102862.66;5019617;28;20072;-58
2022/04/27 09:58:18;;;;;;;8.65;3.42;;;;;;;15.05;40.26;102863.00;5005273;28;20399;-61
2022/04/27 10:00:45;;;;;;;7.57;3.55;;;;;;;15.36;41.47;102871.72;5020402;28;20083;-60
2022/04/27 10:03:15;;;;;;;5.53;3.20;;;;;;;15.30;42.37;102876.84;5016121;28;20044;-59
2022/04/27 10:05:42;;;;;;;7.43;2.95;;;;;;;15.02;43.06;102874.31;5020208;28;20037;-58
2022/04/27 10:08:09;;;;;;;8.88;3.30;;;;;;;15.16;43.52;102870.31;5013247;28;20368;-58
2022/04/27 10:10:39;;;;;;;7.63;2.97;;;;;;;14.83;43.06;102869.41;5017626;28;20045;-59
2022/04/27 10:13:10;;;;;;;7.85;3.20;;;;;;;14.70;44.32;102867.31;4993595;28;20125;-60
2022/04/27 10:15:36;;;;;;;8.75;3.10;;;;;;;14.60;44.19;102866.13;5014716;28;20464;-58
2022/04/27 10:18:05;;;;;;;6.93;3.10;;;;;;;14.78;44.22;102871.00;5018867;28;20048;-59
2022/04/27 10:20:33;;;;;;;6.75;3.13;;;;;;;14.35;44.08;102867.13;5013546;28;21460;-60
2022/04/27 10:23:20;;;;;;;9.27;3.58;;;;;;;14.22;44.27;102870.22;5002087;28;20500;-58
2022/04/27 10:26:11;;;;;;;6.45;3.42;;;;;;;14.31;45.06;102867.88;5018888;28;20067;-60
2022/04/27 10:28:42;;;;;;;7.63;3.35;;;;;;;14.58;44.97;102868.72;4999001;28;20049;-60
2022/04/27 10:31:11;;;;;;;8.93;3.70;;;;;;;14.51;44.53;102868.50;5026224;28;20966;-61
2022/04/27 10:33:41;;;;;;;10.82;3.70;;;;;;;14.38;45.09;102872.50;5015662;28;20041;-59
2022/04/27 10:36:19;;;;;;;11.75;3.72;;;;;;;14.13;45.16;102869.97;5016824;28;20048;-59
2022/04/27 10:39:17;;;;;;;9.25;3.80;;;;;;;14.11;46.35;102880.41;5019700;28;20143;-62
2022/04/27 10:42:03;;;;;;;9.23;3.97;;;;;;;14.46;45.91;102877.97;5017533;28;20059;-59
2022/04/27 10:44:47;;;;;;;9.63;3.40;;;;;;;14.70;45.60;102878.66;5020666;28;20048;-59
2022/04/27 10:47:18;;;;;;;5.88;3.10;;;;;;;14.71;45.11;102874.31;5017284;28;20045;-60
2022/04/27 10:49:46;;;;;;;8.05;3.45;;;;;;;14.85;44.50;102873.84;5021895;28;20063;-57
2022/04/27 10:52:13;;;;;;;10.48;3.47;;;;;;;14.77;44.20;102879.72;5007785;28;20028;-58
2022/04/27 10:54:39;;;;;;;8.25;3.70;;;;;;;14.59;44.70;102873.13;5014133;28;20072;-58
2022/04/27 10:57:14;;;;;;;7.15;3.08;;;;;;;14.83;44.04;102870.28;5019476;28;20543;-59
2022/04/27 11:00:12;;;;;;;7.65;3.03;;;;;;;14.79;43.44;102878.03;5018173;28;20147;-59
2022/04/27 11:02:39;;;;;;;10.18;2.80;;;;;;;14.74;43.71;102875.31;5009581;28;20041;-58
2022/04/27 11:05:10;;;;;;;6.28;2.83;;;;;;;14.92;43.57;102874.91;5017758;28;20041;-57
2022/04/27 11:07:52;;;;;;;7.18;3.00;;;;;;;15.01;44.73;102877.78;5015912;28;20544;-59
2022/04/27 11:10:21;;;;;;;7.78;3.30;;;;;;;15.10;44.34;102878.03;5010815;28;20314;-59
2022/04/27 11:12:54;;;;;;;7.82;3.13;;;;;;;15.11;43.53;102879.81;5003846;28;20459;-59
2022/04/27 11:15:25;;;;;;;8.77;3.00;;;;;;;15.19;43.79;102880.00;5004100;28;20530;-58
2022/04/27 11:18:00;;;;;;;7.70;3.17;;;;;;;14.73;44.97;102877.88;5021470;28;20735;-59
2022/04/27 11:20:39;;;;;;;7.75;2.95;;;;;;;14.70;44.90;102880.44;5014748;28;20633;-59
2022/04/27 11:23:07;;;;;;;7.07;3.10;;;;;;;14.67;44.01;102889.09;5018711;28;20093;-60
2022/04/27 11:25:41;;;;;;;8.00;2.90;;;;;;;14.66;44.62;102884.69;5020503;28;20327;-59
2022/04/27 11:28:08;;;;;;;6.60;2.80;;;;;;;14.68;45.06;102885.63;5013438;28;20820;-59
2022/04/27 11:30:34;;;;;;;8.05;3.05;;;;;;;14.61;44.58;102886.28;5011519;28;20048;-59
2022/04/27 11:33:11;;;;;;;7.20;2.97;;;;;;;14.70;44.73;102886.53;4997173;28;20044;-59
2022/04/27 11:35:44;;;;;;;10.80;3.03;;;;;;;14.68;44.53;102880.38;5021388;28;20061;-59
2022/04/27 11:38:15;;;;;;;9.77;3.08;;;;;;;14.71;44.69;102882.19;5012417;28;20130;-58
2022/04/27 11:40:41;;;;;;;9.48;3.20;;;;;;;14.65;45.47;102888.16;5022280;28;20477;-59
2022/04/27 11:43:06;;;;;;;9.68;3.30;;;;;;;14.84;44.18;102887.81;5015673;28;20059;-58
2022/04/27 11:45:32;;;;;;;7.07;3.50;;;;;;;14.82;43.42;102886.88;5016536;28;20041;-60